createdAt,value
2019-05-12T00:00:28.761Z,0.00
2019-05-12T00:01:28.660Z,0.00
2019-05-12T00:02:28.744Z,0.00
2019-05-12T00:03:27.906Z,0.00
2019-05-12T00:04:28.020Z,0.00
2019-05-12T00:05:28.114Z,0.00
2019-05-12T00:06:28.342Z,0.00
2019-05-12T00:07:28.560Z,0.00
2019-05-12T00:08:27.992Z,0.00
2019-05-12T00:09:28.401Z,0.00
2019-05-12T00:10:28.250Z,0.00
2019-05-12T00:11:28.674Z,0.00
2019-05-12T00:12:28.060Z,0.00
2019-05-12T00:13:28.113Z,0.00
2019-05-12T00:14:28.249Z,0.00
2019-05-12T00:15:28.231Z,0.00
2019-05-12T00:16:28.459Z,0.00
2019-05-12T00:17:28.492Z,0.00
2019-05-12T00:18:28.537Z,0.00
2019-05-12T00:19:28.559Z,0.00
2019-05-12T00:20:28.519Z,0.00
2019-05-12T00:21:28.432Z,0.00
2019-05-12T00:22:28.687Z,0.00
2019-05-12T00:23:31.070Z,0.00
2019-05-12T00:24:28.267Z,0.00
2019-05-12T00:25:28.479Z,0.00
2019-05-12T00:26:28.432Z,0.00
2019-05-12T00:27:28.431Z,0.00
2019-05-12T00:28:28.487Z,0.00
2019-05-12T00:29:28.726Z,0.00
2019-05-12T00:30:28.369Z,0.00
2019-05-12T00:31:28.386Z,0.00
2019-05-12T00:32:28.403Z,0.00
2019-05-12T00:33:28.428Z,0.00
2019-05-12T00:34:28.891Z,0.00
2019-05-12T00:35:28.584Z,0.00
2019-05-12T00:36:29.299Z,0.00
2019-05-12T00:37:28.852Z,0.00
2019-05-12T00:38:28.507Z,0.00
2019-05-12T00:39:28.525Z,0.00
2019-05-12T00:40:28.541Z,0.00
2019-05-12T00:41:28.563Z,0.00
2019-05-12T00:42:28.803Z,0.00
2019-05-12T00:43:28.594Z,0.00
2019-05-12T00:44:28.648Z,0.00
2019-05-12T00:45:29.317Z,0.00
2019-05-12T00:46:28.646Z,0.00
2019-05-12T00:47:28.661Z,0.00
2019-05-12T00:48:28.682Z,0.00
2019-05-12T00:49:29.070Z,0.00
2019-05-12T00:50:29.035Z,0.00
2019-05-12T00:51:28.997Z,0.00
2019-05-12T00:52:28.747Z,0.00
2019-05-12T00:53:39.472Z,0.00
2019-05-12T00:54:28.779Z,0.00
2019-05-12T00:55:29.141Z,0.00
2019-05-12T00:56:28.814Z,0.00
2019-05-12T00:57:28.833Z,0.00
2019-05-12T00:58:28.851Z,0.00
2019-05-12T00:59:28.865Z,0.00
2019-05-12T01:00:29.650Z,0.00
2019-05-12T01:01:28.900Z,0.00
2019-05-12T01:02:28.918Z,0.00
2019-05-12T01:03:28.937Z,0.00
2019-05-12T01:04:29.160Z,0.00
2019-05-12T01:05:29.414Z,0.00
2019-05-12T01:06:28.983Z,0.00
2019-05-12T01:07:29.001Z,0.00
2019-05-12T01:08:29.019Z,0.00
2019-05-12T01:09:29.036Z,0.00
2019-05-12T01:10:29.053Z,0.00
2019-05-12T01:11:29.071Z,0.00
2019-05-12T01:12:29.090Z,0.00
2019-05-12T01:13:29.106Z,0.00
2019-05-12T01:14:29.123Z,0.00
2019-05-12T01:15:29.145Z,0.00
2019-05-12T01:16:29.155Z,0.00
2019-05-12T01:17:29.175Z,0.00
2019-05-12T01:18:29.189Z,0.00
2019-05-12T01:19:29.207Z,0.00
2019-05-12T01:20:29.223Z,0.00
2019-05-12T01:21:29.242Z,0.00
2019-05-12T01:22:29.258Z,0.00
2019-05-12T01:23:29.274Z,0.00
2019-05-12T01:24:29.290Z,0.00
2019-05-12T01:25:29.318Z,0.00
2019-05-12T01:26:29.326Z,0.00
2019-05-12T01:27:29.345Z,0.00
2019-05-12T01:28:29.357Z,0.00
2019-05-12T01:29:29.378Z,0.00
2019-05-12T01:30:29.394Z,0.00
2019-05-12T01:31:29.409Z,0.00
2019-05-12T01:32:29.428Z,0.00
2019-05-12T01:33:29.443Z,0.00
2019-05-12T01:34:29.463Z,0.00
2019-05-12T01:35:29.479Z,0.00
2019-05-12T01:36:29.493Z,0.00
2019-05-12T01:37:29.534Z,0.00
2019-05-12T01:38:29.591Z,0.00
2019-05-12T01:39:29.607Z,0.00
2019-05-12T01:40:29.598Z,0.00
2019-05-12T01:41:29.662Z,0.00
2019-05-12T01:42:29.651Z,0.00
2019-05-12T01:43:29.652Z,0.00
2019-05-12T01:44:29.659Z,0.00
2019-05-12T01:45:29.650Z,0.00
2019-05-12T01:46:29.662Z,0.00
2019-05-12T01:47:29.679Z,0.00
2019-05-12T01:48:29.700Z,0.00
2019-05-12T01:49:29.717Z,0.00
2019-05-12T01:50:29.731Z,0.00
2019-05-12T01:51:29.754Z,0.00
2019-05-12T01:52:29.766Z,0.00
2019-05-12T01:53:29.784Z,0.00
2019-05-12T01:54:29.801Z,0.00
2019-05-12T01:55:29.817Z,0.00
2019-05-12T01:56:29.834Z,0.00
2019-05-12T01:57:29.850Z,0.00
2019-05-12T01:58:29.866Z,0.00
2019-05-12T01:59:29.885Z,0.00
2019-05-12T02:00:29.902Z,0.00
2019-05-12T02:01:29.918Z,0.00
2019-05-12T02:02:29.936Z,0.00
2019-05-12T02:03:29.954Z,0.00
2019-05-12T02:04:29.972Z,0.00
2019-05-12T02:05:29.987Z,0.00
2019-05-12T02:06:30.003Z,0.00
2019-05-12T02:07:30.023Z,0.00
2019-05-12T02:08:30.037Z,0.00
2019-05-12T02:09:30.053Z,0.00
2019-05-12T02:10:30.070Z,0.00
2019-05-12T02:11:30.090Z,0.00
2019-05-12T02:12:30.108Z,0.00
2019-05-12T02:13:30.121Z,0.00
2019-05-12T02:14:30.139Z,0.00
2019-05-12T02:15:30.155Z,0.00
2019-05-12T02:16:30.173Z,0.00
2019-05-12T02:17:30.190Z,0.00
2019-05-12T02:18:30.207Z,0.00
2019-05-12T02:19:30.222Z,0.00
2019-05-12T02:20:30.240Z,0.00
2019-05-12T02:21:30.258Z,0.00
2019-05-12T02:22:30.273Z,0.00
2019-05-12T02:23:30.291Z,0.00
2019-05-12T02:24:30.694Z,0.00
2019-05-12T02:25:30.323Z,0.00
2019-05-12T02:26:30.343Z,0.00
2019-05-12T02:27:30.359Z,0.00
2019-05-12T02:28:30.374Z,0.00
2019-05-12T02:29:30.390Z,0.00
2019-05-12T02:30:30.885Z,0.00
2019-05-12T02:31:30.429Z,0.00
2019-05-12T02:32:43.317Z,0.00
2019-05-12T02:33:30.460Z,0.00
2019-05-12T02:34:30.476Z,0.00
2019-05-12T02:35:30.497Z,0.00
2019-05-12T02:36:30.510Z,0.00
2019-05-12T02:37:30.533Z,0.00
2019-05-12T02:38:30.542Z,0.00
2019-05-12T02:39:30.561Z,0.00
2019-05-12T02:40:30.578Z,0.00
2019-05-12T02:41:30.596Z,4.00
2019-05-12T02:42:30.612Z,4.00
2019-05-12T02:43:30.630Z,4.00
2019-05-12T02:44:30.644Z,0.00
2019-05-12T02:45:30.661Z,0.00
2019-05-12T02:46:30.680Z,4.00
2019-05-12T02:47:30.695Z,4.00
2019-05-12T02:48:30.718Z,8.00
2019-05-12T02:49:30.727Z,4.00
2019-05-12T02:50:30.752Z,8.00
2019-05-12T02:51:30.772Z,8.00
2019-05-12T02:52:30.784Z,8.00
2019-05-12T02:53:30.794Z,8.00
2019-05-12T02:54:46.993Z,12.00
2019-05-12T02:55:30.828Z,12.00
2019-05-12T02:56:30.846Z,12.00
2019-05-12T02:57:34.195Z,16.00
2019-05-12T02:58:30.881Z,20.00
2019-05-12T02:59:30.898Z,20.00
2019-05-12T03:00:30.915Z,24.00
2019-05-12T03:01:30.934Z,24.00
2019-05-12T03:02:30.948Z,32.00
2019-05-12T03:03:30.973Z,36.00
2019-05-12T03:04:30.999Z,36.00
2019-05-12T03:05:30.999Z,40.00
2019-05-12T03:06:31.013Z,48.00
2019-05-12T03:07:34.401Z,52.00
2019-05-12T03:08:31.052Z,56.00
2019-05-12T03:09:34.680Z,60.00
2019-05-12T03:10:31.080Z,68.00
2019-05-12T03:11:31.095Z,72.00
2019-05-12T03:12:34.259Z,84.00
2019-05-12T03:13:34.360Z,84.00
2019-05-12T03:14:35.475Z,92.00
2019-05-12T03:15:31.166Z,100.00
2019-05-12T03:16:34.642Z,104.00
2019-05-12T03:17:31.197Z,112.00
2019-05-12T03:18:34.535Z,120.00
2019-05-12T03:19:34.419Z,128.00
2019-05-12T03:20:31.247Z,136.00
2019-05-12T03:21:31.263Z,144.00
2019-05-12T03:22:31.281Z,156.00
2019-05-12T03:23:31.302Z,164.00
2019-05-12T03:24:34.039Z,180.00
2019-05-12T03:25:35.070Z,188.00
2019-05-12T03:26:31.346Z,204.00
2019-05-12T03:27:31.364Z,216.00
2019-05-12T03:28:31.408Z,228.00
2019-05-12T03:29:34.148Z,248.00
2019-05-12T03:30:37.083Z,268.00
2019-05-12T03:31:33.827Z,280.00
2019-05-12T03:32:37.240Z,304.00
2019-05-12T03:33:36.021Z,320.00
2019-05-12T03:34:31.523Z,340.00
2019-05-12T03:35:35.013Z,364.00
2019-05-12T03:36:34.741Z,388.00
2019-05-12T03:37:31.608Z,416.00
2019-05-12T03:38:31.549Z,448.00
2019-05-12T03:39:34.216Z,480.00
2019-05-12T03:40:37.122Z,512.00
2019-05-12T03:41:31.595Z,552.00
2019-05-12T03:42:35.218Z,584.00
2019-05-12T03:43:34.852Z,620.00
2019-05-12T03:44:31.650Z,656.00
2019-05-12T03:45:31.668Z,692.00
2019-05-12T03:46:35.036Z,732.00
2019-05-12T03:47:31.697Z,776.00
2019-05-12T03:48:34.698Z,824.00
2019-05-12T03:49:34.620Z,876.00
2019-05-12T03:50:34.895Z,928.00
2019-05-12T03:51:34.736Z,980.00
2019-05-12T03:52:34.732Z,1036.00
2019-05-12T03:53:34.943Z,1092.00
2019-05-12T03:54:34.745Z,1148.00
2019-05-12T03:55:36.419Z,1208.00
2019-05-12T03:56:34.508Z,1276.00
2019-05-12T03:57:34.552Z,1336.00
2019-05-12T03:58:34.606Z,1404.00
2019-05-12T03:59:34.606Z,1472.00
2019-05-12T04:00:35.332Z,1540.00
2019-05-12T04:01:35.850Z,1604.00
2019-05-12T04:02:34.061Z,1676.00
2019-05-12T04:03:34.538Z,1740.00
2019-05-12T04:04:34.525Z,1812.00
2019-05-12T04:05:34.734Z,1880.00
2019-05-12T04:06:34.627Z,1952.00
2019-05-12T04:07:34.467Z,2016.00
2019-05-12T04:08:34.590Z,2084.00
2019-05-12T04:09:34.718Z,2152.00
2019-05-12T04:10:35.061Z,2212.00
2019-05-12T04:11:35.422Z,2272.00
2019-05-12T04:12:34.611Z,2332.00
2019-05-12T04:13:34.193Z,2388.00
2019-05-12T04:14:34.572Z,2444.00
2019-05-12T04:15:34.763Z,2504.00
2019-05-12T04:16:32.178Z,2576.00
2019-05-12T04:17:34.691Z,2640.00
2019-05-12T04:18:34.784Z,2708.00
2019-05-12T04:19:34.366Z,2772.00
2019-05-12T04:20:35.234Z,2840.00
2019-05-12T04:21:34.767Z,2908.00
2019-05-12T04:22:34.840Z,2976.00
2019-05-12T04:23:34.682Z,3052.00
2019-05-12T04:24:35.644Z,3136.00
2019-05-12T04:25:47.869Z,3228.00
2019-05-12T04:26:35.844Z,3328.00
2019-05-12T04:27:34.817Z,3424.00
2019-05-12T04:28:35.172Z,3528.00
2019-05-12T04:29:34.858Z,3632.00
2019-05-12T04:30:35.135Z,3724.00
2019-05-12T04:31:34.643Z,3800.00
2019-05-12T04:32:35.445Z,3876.00
2019-05-12T04:33:34.674Z,3940.00
2019-05-12T04:34:34.259Z,4008.00
2019-05-12T04:35:34.879Z,4080.00
2019-05-12T04:36:35.194Z,4160.00
2019-05-12T04:37:34.979Z,4248.00
2019-05-12T04:38:35.257Z,4340.00
2019-05-12T04:39:34.087Z,4424.00
2019-05-12T04:40:35.627Z,4484.00
2019-05-12T04:41:35.109Z,4552.00
2019-05-12T04:42:35.046Z,4620.00
2019-05-12T04:43:35.210Z,4704.00
2019-05-12T04:44:34.716Z,4780.00
2019-05-12T04:45:34.686Z,4864.00
2019-05-12T04:46:34.631Z,4956.00
2019-05-12T04:47:34.967Z,5036.00
2019-05-12T04:48:35.985Z,5108.00
2019-05-12T04:49:34.609Z,5164.00
2019-05-12T04:50:35.407Z,5216.00
2019-05-12T04:51:34.872Z,5244.00
2019-05-12T04:52:35.159Z,5296.00
2019-05-12T04:53:35.258Z,5372.00
2019-05-12T04:54:35.458Z,5444.00
2019-05-12T04:55:35.689Z,5532.00
2019-05-12T04:56:35.791Z,5612.00
2019-05-12T04:57:34.602Z,5680.00
2019-05-12T04:58:35.110Z,5744.00
2019-05-12T04:59:34.480Z,5800.00
2019-05-12T05:00:34.899Z,5800.00
2019-05-12T05:01:34.593Z,5732.00
2019-05-12T05:02:36.312Z,5644.00
2019-05-12T05:03:34.923Z,5600.00
2019-05-12T05:04:34.685Z,5616.00
2019-05-12T05:05:35.436Z,5600.00
2019-05-12T05:06:34.227Z,5540.00
2019-05-12T05:07:35.643Z,5488.00
2019-05-12T05:08:34.911Z,5484.00
2019-05-12T05:09:35.004Z,5536.00
2019-05-12T05:10:34.098Z,5680.00
2019-05-12T05:11:34.567Z,5860.00
2019-05-12T05:12:34.471Z,6032.00
2019-05-12T05:13:36.827Z,6140.00
2019-05-12T05:14:34.048Z,6156.00
2019-05-12T05:15:34.817Z,6168.00
2019-05-12T05:16:34.691Z,6216.00
2019-05-12T05:17:34.781Z,6280.00
2019-05-12T05:18:34.436Z,6396.00
2019-05-12T05:19:33.722Z,6528.00
2019-05-12T05:20:34.405Z,6648.00
2019-05-12T05:21:34.477Z,6736.00
2019-05-12T05:22:33.435Z,6860.00
2019-05-12T05:23:33.540Z,6980.00
2019-05-12T05:24:33.899Z,7088.00
2019-05-12T05:25:34.096Z,7212.00
2019-05-12T05:26:36.674Z,7344.00
2019-05-12T05:27:34.027Z,7488.00
2019-05-12T05:28:33.990Z,7652.00
2019-05-12T05:29:35.372Z,7788.00
2019-05-12T05:30:34.189Z,7904.00
2019-05-12T05:31:33.795Z,7956.00
2019-05-12T05:32:33.923Z,7904.00
2019-05-12T05:33:34.068Z,7860.00
2019-05-12T05:34:34.281Z,7884.00
2019-05-12T05:35:35.058Z,7964.00
2019-05-12T05:36:34.515Z,8048.00
2019-05-12T05:37:39.614Z,8108.00
2019-05-12T05:38:34.262Z,8148.00
2019-05-12T05:39:35.656Z,8144.00
2019-05-12T05:40:35.832Z,8172.00
2019-05-12T05:41:34.562Z,8196.00
2019-05-12T05:42:35.561Z,8316.00
2019-05-12T05:43:33.640Z,8536.00
2019-05-12T05:44:36.354Z,8748.00
2019-05-12T05:45:35.202Z,8844.00
2019-05-12T05:46:33.803Z,8940.00
2019-05-12T05:47:33.760Z,9080.00
2019-05-12T05:48:35.171Z,9200.00
2019-05-12T05:49:34.276Z,9316.00
2019-05-12T05:50:34.297Z,9620.00
2019-05-12T05:51:33.777Z,9188.00
2019-05-12T05:52:38.543Z,8920.00
2019-05-12T05:53:33.811Z,8844.00
2019-05-12T05:54:35.953Z,8988.00
2019-05-12T05:55:34.530Z,9328.00
2019-05-12T05:56:42.172Z,9784.00
2019-05-12T05:57:33.882Z,10492.00
2019-05-12T05:58:34.054Z,11168.00
2019-05-12T05:59:36.733Z,11508.00
2019-05-12T06:00:35.161Z,11264.00
2019-05-12T06:01:34.728Z,10492.00
2019-05-12T06:02:40.252Z,10308.00
2019-05-12T06:03:34.017Z,10412.00
2019-05-12T06:04:34.280Z,10644.00
2019-05-12T06:05:35.410Z,10252.00
2019-05-12T06:06:34.264Z,10852.00
2019-05-12T06:07:38.590Z,11768.00
2019-05-12T06:08:34.073Z,12496.00
2019-05-12T06:09:34.091Z,13048.00
2019-05-12T06:10:36.150Z,14432.00
2019-05-12T06:11:34.500Z,16024.00
2019-05-12T06:12:34.170Z,16504.00
2019-05-12T06:13:34.577Z,18272.00
2019-05-12T06:14:34.300Z,19456.00
2019-05-12T06:15:40.435Z,20352.00
2019-05-12T06:16:34.237Z,22688.00
2019-05-12T06:17:34.233Z,22272.00
2019-05-12T06:18:34.250Z,22656.00
2019-05-12T06:19:34.337Z,22496.00
2019-05-12T06:20:37.790Z,20992.00
2019-05-12T06:21:38.241Z,19328.00
2019-05-12T06:22:34.417Z,19424.00
2019-05-12T06:23:39.039Z,19360.00
2019-05-12T06:24:34.358Z,23648.00
2019-05-12T06:25:46.457Z,36480.00
2019-05-12T06:26:35.798Z,40832.00
2019-05-12T06:27:35.966Z,40480.00
2019-05-12T06:28:39.341Z,44768.00
2019-05-12T06:29:34.455Z,41184.00
2019-05-12T06:30:35.834Z,34048.00
2019-05-12T06:31:34.491Z,39808.00
2019-05-12T06:32:34.509Z,46144.00
2019-05-12T06:33:36.328Z,36384.00
2019-05-12T06:34:34.547Z,38048.00
2019-05-12T06:35:37.383Z,33888.00
2019-05-12T06:36:34.586Z,29984.00
2019-05-12T06:37:34.607Z,27648.00
2019-05-12T06:38:38.683Z,27488.00
2019-05-12T06:39:34.646Z,29344.00
2019-05-12T06:40:41.203Z,25504.00
2019-05-12T06:41:34.686Z,29312.00
2019-05-12T06:42:34.707Z,29184.00
2019-05-12T06:43:38.374Z,28736.00
2019-05-12T06:44:34.746Z,25984.00
2019-05-12T06:45:42.146Z,30624.00
2019-05-12T06:46:34.786Z,28640.00
2019-05-12T06:47:39.303Z,23584.00
2019-05-12T06:48:34.831Z,25024.00
2019-05-12T06:49:34.846Z,17824.00
2019-05-12T06:50:39.100Z,34560.00
2019-05-12T06:51:34.888Z,42944.00
2019-05-12T06:52:38.646Z,44256.00
2019-05-12T06:53:34.929Z,45056.00
2019-05-12T06:54:34.950Z,44640.00
2019-05-12T06:55:39.227Z,46048.00
2019-05-12T06:56:34.990Z,45408.00
2019-05-12T06:57:35.012Z,42624.00
2019-05-12T06:58:35.033Z,43872.00
2019-05-12T06:59:35.052Z,49728.00
2019-05-12T07:00:35.368Z,49536.00
2019-05-12T07:01:35.096Z,54048.00
2019-05-12T07:02:41.597Z,53696.00
2019-05-12T07:03:37.201Z,39392.00
2019-05-12T07:04:35.213Z,36288.00
2019-05-12T07:05:38.448Z,32512.00
2019-05-12T07:06:35.251Z,30816.00
2019-05-12T07:07:41.965Z,35168.00
2019-05-12T07:08:38.339Z,50272.00
2019-05-12T07:09:39.757Z,48544.00
2019-05-12T07:10:43.111Z,53888.00
2019-05-12T07:11:44.831Z,52128.00
2019-05-12T07:12:43.471Z,41600.00
2019-05-12T07:13:35.357Z,25728.00
2019-05-12T07:14:35.382Z,48800.00
2019-05-12T07:15:40.206Z,32032.00
2019-05-12T07:16:35.424Z,35552.00
2019-05-12T07:17:43.441Z,46880.00
2019-05-12T07:18:37.089Z,56224.00
2019-05-12T07:19:35.493Z,55360.00
2019-05-12T07:20:38.836Z,56416.00
2019-05-12T07:21:35.535Z,59424.00
2019-05-12T07:22:43.801Z,61792.00
2019-05-12T07:23:35.577Z,63424.00
2019-05-12T07:24:35.603Z,63072.00
2019-05-12T07:25:36.810Z,63744.00
2019-05-12T07:26:35.646Z,62432.00
2019-05-12T07:27:39.323Z,61184.00
2019-05-12T07:28:39.566Z,63872.00
2019-05-12T07:29:35.715Z,60896.00
2019-05-12T07:30:35.738Z,59360.00
2019-05-12T07:31:35.761Z,62880.00
2019-05-12T07:32:35.782Z,63584.00
2019-05-12T07:33:41.558Z,64256.00
2019-05-12T07:34:35.829Z,61856.00
2019-05-12T07:35:35.857Z,59168.00
2019-05-12T07:36:35.874Z,57280.00
2019-05-12T07:37:35.900Z,48960.00
2019-05-12T07:38:35.922Z,62624.00
2019-05-12T07:39:39.285Z,60096.00
2019-05-12T07:40:37.873Z,63808.00
2019-05-12T07:41:35.994Z,42368.00
2019-05-12T07:42:39.337Z,53760.00
2019-05-12T07:43:36.041Z,64512.00
2019-05-12T07:44:40.001Z,65024.00
2019-05-12T07:45:36.086Z,64832.00
2019-05-12T07:46:39.593Z,69472.00
2019-05-12T07:47:36.141Z,65600.00
2019-05-12T07:48:40.227Z,67968.00
2019-05-12T07:49:38.526Z,67872.00
2019-05-12T07:50:36.207Z,68192.00
2019-05-12T07:51:40.514Z,65472.00
2019-05-12T07:52:36.253Z,64448.00
2019-05-12T07:53:36.280Z,63680.00
2019-05-12T07:54:39.428Z,66048.00
2019-05-12T07:55:39.653Z,70048.00
2019-05-12T07:56:36.355Z,70336.00
2019-05-12T07:57:50.690Z,71584.00
2019-05-12T07:58:40.943Z,71392.00
2019-05-12T07:59:40.846Z,72128.00
2019-05-12T08:00:36.460Z,72800.00
2019-05-12T08:01:48.186Z,73536.00
2019-05-12T08:02:36.508Z,72896.00
2019-05-12T08:03:36.534Z,73216.00
2019-05-12T08:04:39.935Z,70880.00
2019-05-12T08:05:36.585Z,72416.00
2019-05-12T08:06:41.882Z,61728.00
2019-05-12T08:07:36.638Z,64480.00
2019-05-12T08:08:41.896Z,68512.00
2019-05-12T08:09:36.810Z,67488.00
2019-05-12T08:10:36.716Z,67584.00
2019-05-12T08:11:38.609Z,64096.00
2019-05-12T08:12:36.769Z,67008.00
2019-05-12T08:13:40.679Z,65056.00
2019-05-12T08:14:36.828Z,67264.00
2019-05-12T08:15:39.804Z,67232.00
2019-05-12T08:16:37.101Z,68960.00
2019-05-12T08:17:36.904Z,54880.00
2019-05-12T08:18:40.911Z,59712.00
2019-05-12T08:19:36.959Z,71264.00
2019-05-12T08:20:36.984Z,70016.00
2019-05-12T08:21:43.642Z,71424.00
2019-05-12T08:22:37.095Z,70208.00
2019-05-12T08:23:38.051Z,62240.00
2019-05-12T08:24:43.040Z,58976.00
2019-05-12T08:25:37.154Z,35232.00
2019-05-12T08:26:37.160Z,18144.00
2019-05-12T08:27:39.209Z,20608.00
2019-05-12T08:28:40.549Z,33440.00
2019-05-12T08:29:37.225Z,42688.00
2019-05-12T08:30:40.389Z,41792.00
2019-05-12T08:31:40.365Z,40960.00
2019-05-12T08:32:37.300Z,38752.00
2019-05-12T08:33:37.326Z,35872.00
2019-05-12T08:34:39.807Z,35456.00
2019-05-12T08:35:38.453Z,35424.00
2019-05-12T08:36:37.404Z,35104.00
2019-05-12T08:37:37.430Z,36384.00
2019-05-12T08:38:37.455Z,36992.00
2019-05-12T08:39:38.901Z,36608.00
2019-05-12T08:40:46.417Z,34848.00
2019-05-12T08:41:37.537Z,25248.00
2019-05-12T08:42:37.555Z,18592.00
2019-05-12T08:43:40.507Z,21664.00
2019-05-12T08:44:40.692Z,31136.00
2019-05-12T08:45:37.906Z,36576.00
2019-05-12T08:46:45.672Z,35328.00
2019-05-12T08:47:38.993Z,42944.00
2019-05-12T08:48:37.707Z,42624.00
2019-05-12T08:49:50.124Z,42048.00
2019-05-12T08:50:37.756Z,41056.00
2019-05-12T08:51:37.788Z,42304.00
2019-05-12T08:52:41.321Z,39264.00
2019-05-12T08:53:37.832Z,37184.00
2019-05-12T08:54:39.761Z,39424.00
2019-05-12T08:55:37.882Z,40672.00
2019-05-12T08:56:37.906Z,38784.00
2019-05-12T08:57:40.885Z,38752.00
2019-05-12T08:58:47.443Z,38432.00
2019-05-12T08:59:37.980Z,36864.00
2019-05-12T09:00:39.589Z,36992.00
2019-05-12T09:01:38.031Z,36256.00
2019-05-12T09:02:39.937Z,38176.00
2019-05-12T09:03:38.083Z,37632.00
2019-05-12T09:04:45.328Z,38624.00
2019-05-12T09:05:38.618Z,37728.00
2019-05-12T09:06:38.160Z,33056.00
2019-05-12T09:07:39.854Z,35392.00
2019-05-12T09:08:44.030Z,30944.00
2019-05-12T09:09:38.235Z,33696.00
2019-05-12T09:10:38.259Z,32672.00
2019-05-12T09:11:38.286Z,31936.00
2019-05-12T09:12:38.312Z,31776.00
2019-05-12T09:13:38.341Z,28480.00
2019-05-12T09:14:41.249Z,36192.00
2019-05-12T09:15:38.389Z,38720.00
2019-05-12T09:16:38.413Z,38368.00
2019-05-12T09:17:49.204Z,40000.00
2019-05-12T09:18:39.394Z,40448.00
2019-05-12T09:19:38.491Z,40512.00
2019-05-12T09:20:39.915Z,39712.00
2019-05-12T09:21:38.540Z,38080.00
2019-05-12T09:22:38.565Z,29600.00
2019-05-12T09:23:41.128Z,18976.00
2019-05-12T09:24:38.614Z,27360.00
2019-05-12T09:25:39.356Z,48576.00
2019-05-12T09:26:38.664Z,57472.00
2019-05-12T09:27:39.427Z,62272.00
2019-05-12T09:28:49.296Z,50912.00
2019-05-12T09:29:38.739Z,67424.00
2019-05-12T09:30:40.066Z,72768.00
2019-05-12T09:31:38.790Z,77280.00
2019-05-12T09:32:39.241Z,68896.00
2019-05-12T09:33:38.844Z,78336.00
2019-05-12T09:34:38.870Z,70592.00
2019-05-12T09:35:39.360Z,71584.00
2019-05-12T09:36:38.998Z,70112.00
2019-05-12T09:37:40.472Z,74144.00
2019-05-12T09:38:40.968Z,71552.00
2019-05-12T09:39:42.499Z,82560.00
2019-05-12T09:40:39.072Z,82880.00
2019-05-12T09:41:42.614Z,85664.00
2019-05-12T09:42:39.078Z,82336.00
2019-05-12T09:43:40.166Z,80096.00
2019-05-12T09:44:41.326Z,83616.00
2019-05-12T09:45:40.141Z,85280.00
2019-05-12T09:46:39.186Z,82560.00
2019-05-12T09:47:39.215Z,59936.00
2019-05-12T09:48:44.240Z,36416.00
2019-05-12T09:49:39.710Z,41120.00
2019-05-12T09:50:39.297Z,71680.00
2019-05-12T09:51:45.640Z,92800.00
2019-05-12T09:52:39.353Z,92768.00
2019-05-12T09:53:42.754Z,76992.00
2019-05-12T09:54:40.768Z,39904.00
2019-05-12T09:55:39.436Z,17184.00
2019-05-12T09:56:41.227Z,14952.00
2019-05-12T09:57:41.188Z,38688.00
2019-05-12T09:58:39.519Z,70656.00
2019-05-12T09:59:39.548Z,89056.00
2019-05-12T10:00:39.577Z,90208.00
2019-05-12T10:01:39.733Z,90688.00
2019-05-12T10:02:39.631Z,89984.00
2019-05-12T10:03:40.161Z,87904.00
2019-05-12T10:04:39.689Z,86080.00
2019-05-12T10:05:41.148Z,86560.00
2019-05-12T10:06:39.748Z,85184.00
2019-05-12T10:07:39.777Z,81696.00
2019-05-12T10:08:39.806Z,80000.00
2019-05-12T10:09:39.830Z,84000.00
2019-05-12T10:10:40.790Z,87712.00
2019-05-12T10:11:39.895Z,87744.00
2019-05-12T10:12:46.242Z,86976.00
2019-05-12T10:13:39.951Z,86496.00
2019-05-12T10:14:40.728Z,85344.00
2019-05-12T10:15:40.014Z,84704.00
2019-05-12T10:16:45.716Z,84192.00
2019-05-12T10:17:40.075Z,86080.00
2019-05-12T10:18:43.100Z,88928.00
2019-05-12T10:19:40.136Z,91008.00
2019-05-12T10:20:40.180Z,89568.00
2019-05-12T10:21:40.201Z,86880.00
2019-05-12T10:22:40.451Z,85696.00
2019-05-12T10:23:40.262Z,85824.00
2019-05-12T10:24:43.033Z,86592.00
2019-05-12T10:25:40.327Z,87904.00
2019-05-12T10:26:41.224Z,86592.00
2019-05-12T10:27:40.390Z,84448.00
2019-05-12T10:28:43.767Z,75296.00
2019-05-12T10:29:40.457Z,81472.00
2019-05-12T10:30:40.485Z,78688.00
2019-05-12T10:31:40.518Z,79008.00
2019-05-12T10:32:40.551Z,81760.00
2019-05-12T10:33:40.583Z,83808.00
2019-05-12T10:34:40.619Z,84864.00
2019-05-12T10:35:40.648Z,87776.00
2019-05-12T10:36:44.883Z,90176.00
2019-05-12T10:37:40.713Z,89536.00
2019-05-12T10:38:40.750Z,88864.00
2019-05-12T10:39:40.780Z,88128.00
2019-05-12T10:40:40.814Z,86624.00
2019-05-12T10:41:40.922Z,85472.00
2019-05-12T10:42:46.141Z,85600.00
2019-05-12T10:43:43.193Z,84608.00
2019-05-12T10:44:41.100Z,77856.00
2019-05-12T10:45:40.986Z,81248.00
2019-05-12T10:46:42.557Z,82624.00
2019-05-12T10:47:41.046Z,82496.00
2019-05-12T10:48:41.087Z,84064.00
2019-05-12T10:49:41.112Z,86592.00
2019-05-12T10:50:41.144Z,86912.00
2019-05-12T10:51:43.620Z,84512.00
2019-05-12T10:52:41.217Z,84416.00
2019-05-12T10:53:43.170Z,76608.00
2019-05-12T10:54:43.330Z,78912.00
2019-05-12T10:55:43.925Z,82112.00
2019-05-12T10:56:43.680Z,83360.00
2019-05-12T10:57:43.759Z,82976.00
2019-05-12T10:58:41.414Z,82976.00
2019-05-12T10:59:45.286Z,78720.00
2019-05-12T11:00:41.480Z,77280.00
2019-05-12T11:01:45.631Z,76768.00
2019-05-12T11:02:41.550Z,80256.00
2019-05-12T11:03:42.886Z,80192.00
2019-05-12T11:04:43.943Z,82368.00
2019-05-12T11:05:43.939Z,83648.00
2019-05-12T11:06:46.862Z,83712.00
2019-05-12T11:07:43.482Z,88064.00
2019-05-12T11:08:46.555Z,88992.00
2019-05-12T11:09:43.552Z,82912.00
2019-05-12T11:10:41.814Z,83648.00
2019-05-12T11:11:45.327Z,74176.00
2019-05-12T11:12:44.003Z,72992.00
2019-05-12T11:13:47.518Z,76896.00
2019-05-12T11:14:43.893Z,77088.00
2019-05-12T11:15:45.948Z,76256.00
2019-05-12T11:16:44.456Z,73632.00
2019-05-12T11:17:45.980Z,63552.00
2019-05-12T11:18:43.667Z,69184.00
2019-05-12T11:19:47.323Z,80224.00
2019-05-12T11:20:42.152Z,81824.00
2019-05-12T11:21:44.177Z,70976.00
2019-05-12T11:22:43.914Z,67936.00
2019-05-12T11:23:43.641Z,75648.00
2019-05-12T11:24:44.344Z,86816.00
2019-05-12T11:25:44.005Z,88800.00
2019-05-12T11:26:43.233Z,90656.00
2019-05-12T11:27:43.690Z,91744.00
2019-05-12T11:28:42.423Z,90336.00
2019-05-12T11:29:48.612Z,89888.00
2019-05-12T11:30:43.639Z,89888.00
2019-05-12T11:31:44.167Z,87136.00
2019-05-12T11:32:44.144Z,88000.00
2019-05-12T11:33:43.565Z,88192.00
2019-05-12T11:34:44.297Z,90976.00
2019-05-12T11:35:43.492Z,89280.00
2019-05-12T11:36:43.759Z,88704.00
2019-05-12T11:37:42.729Z,89824.00
2019-05-12T11:38:44.359Z,90016.00
2019-05-12T11:39:45.310Z,89312.00
2019-05-12T11:40:43.781Z,86240.00
2019-05-12T11:41:44.245Z,86624.00
2019-05-12T11:42:46.784Z,89568.00
2019-05-12T11:43:42.955Z,91040.00
2019-05-12T11:44:44.274Z,90656.00
2019-05-12T11:45:44.196Z,88992.00
2019-05-12T11:46:44.030Z,88544.00
2019-05-12T11:47:44.666Z,88320.00
2019-05-12T11:48:46.370Z,90560.00
2019-05-12T11:49:44.102Z,92672.00
2019-05-12T11:50:49.426Z,94112.00
2019-05-12T11:51:43.212Z,96480.00
2019-05-12T11:52:46.059Z,96928.00
2019-05-12T11:53:44.531Z,87872.00
2019-05-12T11:54:47.143Z,16296.00
2019-05-12T11:55:43.842Z,44864.00
2019-05-12T11:56:46.456Z,12424.00
2019-05-12T11:57:43.792Z,96416.00
2019-05-12T11:58:47.470Z,94272.00
2019-05-12T11:59:51.616Z,92928.00
2019-05-12T12:00:44.075Z,92928.00
2019-05-12T12:01:47.531Z,92352.00
2019-05-12T12:02:43.796Z,93664.00
2019-05-12T12:03:44.078Z,65664.00
2019-05-12T12:04:43.659Z,83584.00
2019-05-12T12:05:44.298Z,85216.00
2019-05-12T12:06:43.919Z,85184.00
2019-05-12T12:07:50.595Z,84096.00
2019-05-12T12:08:44.140Z,80896.00
2019-05-12T12:09:43.964Z,81216.00
2019-05-12T12:10:43.859Z,85088.00
2019-05-12T12:11:43.897Z,87360.00
2019-05-12T12:12:46.532Z,87552.00